Palmdale, California
Current Conditions -  °F | °C
As of 5:53 PM on Friday 28 Nov 2014 (Local Time) from KPMD Reporting Station
Clear Clear  
Wind Chill: 66°   Ceiling: Unl
Heat Index: 66°   Visibility: 10mi
Dew Point: 19°   Wind: 12mph
Humidity: 17%   Direction: 230°SW
Pressure: 29.95"   Gusts: NA
Location:  34.58°N, 118.11°W
Report Text: KPMD 290153Z 23010KT 10SM CLR 19/M07 A2995 RMK AO2 SLP134 T01891072
Loading
Personal Weather Stations






























Interactive Weather Map New forecast layout! Learn more

10-Day Weather Forecast

Advertisements
Track Severe Weather on mobile